Time;durP1;ratioP1;P1;durP2;ratioP2;P2;SDS_P1;SDS_P2;PMS_P1;PMS_P2;Temp;Humidity;BMP_temperature;BMP_pressure;BME280_temperature;BME280_humidity;BME280_pressure;Samples;Min_cycle;Max_cycle;Signal;HPM_P1;HPM_P2
2022/12/07 00:00:47;;;;;;;8.63;3.73;;;;;;;;;;4941643;28;20426;-78
2022/12/07 00:03:14;;;;;;;5.95;3.22;;;;;;;;;;4953757;28;20042;-75
2022/12/07 00:05:40;;;;;;;6.23;3.43;;;;;;;;;;4953041;28;20146;-75
2022/12/07 00:08:07;;;;;;;5.63;2.90;;;;;;;;;;4941180;28;20056;-78
2022/12/07 00:10:35;;;;;;;8.80;3.40;;;;;;;;;;4970556;28;20085;-77
2022/12/07 00:13:09;;;;;;;8.17;3.27;;;;;;;;;;4955207;29;20027;-78
2022/12/07 00:15:40;;;;;;;5.22;3.00;;;;;;;;;;4963011;28;20050;-78
2022/12/07 00:18:10;;;;;;;9.13;3.20;;;;;;;;;;4972611;28;20038;-76
2022/12/07 00:20:38;;;;;;;12.00;3.00;;;;;;;;;;4972159;28;20095;-73
2022/12/07 00:23:04;;;;;;;5.13;2.90;;;;;;;;;;4956677;28;20035;-73
2022/12/07 00:25:30;;;;;;;9.00;3.50;;;;;;;;;;4940897;28;20038;-72
2022/12/07 00:27:56;;;;;;;5.10;3.27;;;;;;;;;;4940391;28;20433;-73
2022/12/07 00:30:22;;;;;;;5.97;3.63;;;;;;;;;;4941125;28;20444;-73
2022/12/07 00:32:48;;;;;;;5.70;3.40;;;;;;;;;;4956701;28;20064;-72
2022/12/07 00:35:15;;;;;;;7.80;3.00;;;;;;;;;;4956926;28;20037;-71
2022/12/07 00:37:41;;;;;;;6.60;3.00;;;;;;;;;;4956736;28;20039;-71
2022/12/07 00:40:07;;;;;;;4.47;3.00;;;;;;;;;;4941039;28;20089;-72
2022/12/07 00:42:34;;;;;;;6.00;3.10;;;;;;;;;;4940900;28;20045;-72
2022/12/07 00:45:00;;;;;;;5.73;2.57;;;;;;;;;;4940628;28;20050;-72
2022/12/07 00:47:26;;;;;;;5.57;2.70;;;;;;;;;;4940323;28;20433;-73
2022/12/07 00:49:55;;;;;;;5.83;3.10;;;;;;;;;;4941225;28;20141;-73
2022/12/07 00:52:21;;;;;;;11.17;3.30;;;;;;;;;;4941166;28;20030;-72
2022/12/07 00:54:46;;;;;;;9.37;3.40;;;;;;;;;;4942790;28;20049;-71
2022/12/07 00:57:12;;;;;;;4.83;2.70;;;;;;;;;;4951229;28;20492;-73
2022/12/07 00:59:38;;;;;;;10.40;3.30;;;;;;;;;;4948579;28;20085;-72
2022/12/07 01:02:04;;;;;;;5.30;3.13;;;;;;;;;;4964053;28;20031;-73
2022/12/07 01:04:30;;;;;;;6.47;3.40;;;;;;;;;;4940072;28;20039;-72
2022/12/07 01:06:55;;;;;;;7.50;3.50;;;;;;;;;;4939986;28;20127;-72
2022/12/07 01:09:21;;;;;;;5.80;3.10;;;;;;;;;;4940186;28;20078;-71
2022/12/07 01:11:48;;;;;;;6.63;3.00;;;;;;;;;;4956718;28;20588;-72
2022/12/07 01:14:14;;;;;;;6.10;2.90;;;;;;;;;;4939642;28;20147;-72
2022/12/07 01:16:44;;;;;;;5.23;3.03;;;;;;;;;;4956501;28;20054;-71
2022/12/07 01:19:10;;;;;;;5.20;2.97;;;;;;;;;;4937667;28;20473;-73
2022/12/07 01:21:37;;;;;;;5.50;3.50;;;;;;;;;;4937820;28;20058;-73
2022/12/07 01:24:05;;;;;;;5.90;3.10;;;;;;;;;;4937686;28;20038;-74
2022/12/07 01:26:32;;;;;;;4.97;3.30;;;;;;;;;;4955218;28;20073;-74
2022/12/07 01:28:58;;;;;;;5.40;3.17;;;;;;;;;;4938606;28;20081;-74
2022/12/07 01:31:25;;;;;;;5.40;3.10;;;;;;;;;;4939524;28;20481;-74
2022/12/07 01:33:54;;;;;;;5.77;3.40;;;;;;;;;;4939506;28;20401;-74
2022/12/07 01:36:20;;;;;;;7.53;3.47;;;;;;;;;;4924843;28;20066;-74
2022/12/07 01:38:47;;;;;;;6.07;2.87;;;;;;;;;;4956269;28;20046;-74
2022/12/07 01:41:13;;;;;;;4.73;2.63;;;;;;;;;;4940814;28;20787;-74
2022/12/07 01:44:13;;;;;;;7.30;3.07;;;;;;;;;;4956252;28;20156;-74
2022/12/07 01:46:40;;;;;;;4.90;2.93;;;;;;;;;;4904662;28;20081;-74
2022/12/07 01:49:09;;;;;;;6.27;3.20;;;;;;;;;;4940121;28;20054;-74
2022/12/07 01:51:37;;;;;;;7.03;3.27;;;;;;;;;;4940959;28;20034;-74
2022/12/07 01:54:04;;;;;;;6.20;3.07;;;;;;;;;;4971833;28;20689;-74
2022/12/07 01:56:31;;;;;;;7.07;3.17;;;;;;;;;;4956738;28;20094;-74
2022/12/07 01:58:58;;;;;;;8.37;3.80;;;;;;;;;;4955922;28;20038;-74
2022/12/07 02:01:25;;;;;;;6.47;2.73;;;;;;;;;;4972904;28;20047;-74
2022/12/07 02:03:53;;;;;;;4.63;2.73;;;;;;;;;;4956522;28;20362;-74
2022/12/07 02:06:23;;;;;;;6.67;3.47;;;;;;;;;;4956414;28;20105;-74
2022/12/07 02:08:49;;;;;;;7.28;3.40;;;;;;;;;;4955697;28;20081;-72
2022/12/07 02:11:16;;;;;;;6.67;3.60;;;;;;;;;;4971727;28;20086;-72
2022/12/07 02:13:44;;;;;;;7.40;3.07;;;;;;;;;;4956291;28;20039;-73
2022/12/07 02:16:10;;;;;;;7.23;3.90;;;;;;;;;;4971924;28;20034;-72
2022/12/07 02:19:06;;;;;;;9.73;3.67;;;;;;;;;;4955848;28;20799;-73
2022/12/07 02:21:40;;;;;;;7.30;3.67;;;;;;;;;;4857937;28;20347;-73
2022/12/07 02:24:07;;;;;;;9.03;3.33;;;;;;;;;;4955722;28;20034;-71
2022/12/07 02:26:39;;;;;;;7.37;3.10;;;;;;;;;;4955549;28;20376;-71
2022/12/07 02:29:14;;;;;;;5.70;2.67;;;;;;;;;;4939248;28;20057;-71
2022/12/07 02:31:44;;;;;;;7.30;3.50;;;;;;;;;;4940097;28;20142;-74
2022/12/07 02:34:21;;;;;;;9.53;3.50;;;;;;;;;;4940749;28;20049;-74
2022/12/07 02:36:52;;;;;;;5.30;3.00;;;;;;;;;;4971558;28;20066;-74
2022/12/07 02:39:43;;;;;;;5.73;2.90;;;;;;;;;;4940368;28;20035;-74
2022/12/07 02:42:14;;;;;;;8.20;3.50;;;;;;;;;;4939844;28;20090;-74
2022/12/07 02:44:40;;;;;;;7.72;3.10;;;;;;;;;;4956025;28;20105;-74
2022/12/07 02:47:10;;;;;;;5.27;3.07;;;;;;;;;;4970970;28;20053;-74
2022/12/07 02:49:37;;;;;;;8.03;3.37;;;;;;;;;;4955491;28;20054;-74
2022/12/07 02:52:05;;;;;;;6.27;2.90;;;;;;;;;;4955422;28;20051;-74
2022/12/07 02:54:31;;;;;;;7.00;3.17;;;;;;;;;;4971476;28;20393;-74
2022/12/07 02:57:33;;;;;;;6.17;3.10;;;;;;;;;;4970169;28;20054;-74
2022/12/07 03:00:12;;;;;;;5.93;3.00;;;;;;;;;;4861868;29;20467;-74
2022/12/07 03:02:39;;;;;;;7.37;3.60;;;;;;;;;;4959997;28;20540;-74
2022/12/07 03:05:19;;;;;;;6.60;3.17;;;;;;;;;;4951033;28;20053;-74
2022/12/07 03:07:55;;;;;;;4.43;2.70;;;;;;;;;;4934494;29;20042;-74
2022/12/07 03:10:27;;;;;;;7.83;3.20;;;;;;;;;;4951986;28;20098;-74
2022/12/07 03:13:01;;;;;;;5.47;3.17;;;;;;;;;;4940261;29;20047;-73
2022/12/07 03:15:27;;;;;;;4.43;2.83;;;;;;;;;;4955943;28;20286;-70
2022/12/07 03:17:55;;;;;;;9.40;3.50;;;;;;;;;;4939560;28;20031;-72
2022/12/07 03:20:22;;;;;;;6.77;3.20;;;;;;;;;;4940532;28;20049;-73
2022/12/07 03:22:51;;;;;;;9.57;3.33;;;;;;;;;;4939078;29;20129;-73
2022/12/07 03:25:17;;;;;;;4.93;2.80;;;;;;;;;;4950260;28;20034;-72
2022/12/07 03:27:55;;;;;;;4.77;2.50;;;;;;;;;;4956657;28;20133;-72
2022/12/07 03:30:34;;;;;;;10.00;3.37;;;;;;;;;;4941484;28;20038;-73
2022/12/07 03:33:03;;;;;;;4.80;3.00;;;;;;;;;;4956329;28;20035;-72
2022/12/07 03:35:30;;;;;;;5.72;3.45;;;;;;;;;;4973876;28;20031;-72
2022/12/07 03:38:18;;;;;;;7.50;3.33;;;;;;;;;;4957527;28;20051;-72
2022/12/07 03:41:00;;;;;;;8.43;4.03;;;;;;;;;;4957962;28;20132;-72
2022/12/07 03:43:28;;;;;;;5.03;3.13;;;;;;;;;;4936702;28;20392;-73
2022/12/07 03:46:13;;;;;;;4.80;3.03;;;;;;;;;;4941947;28;20038;-71
2022/12/07 03:48:47;;;;;;;6.13;3.40;;;;;;;;;;4958019;28;20042;-71
2022/12/07 03:51:26;;;;;;;6.13;3.40;;;;;;;;;;4973854;28;20129;-72
2022/12/07 03:53:56;;;;;;;5.97;2.93;;;;;;;;;;4972885;28;20357;-73
2022/12/07 03:56:23;;;;;;;6.77;3.40;;;;;;;;;;4940745;28;20042;-72
2022/12/07 03:58:49;;;;;;;7.80;3.87;;;;;;;;;;4940936;28;20523;-72
2022/12/07 04:01:17;;;;;;;6.37;2.90;;;;;;;;;;4940546;28;20524;-73
2022/12/07 04:03:43;;;;;;;5.63;3.37;;;;;;;;;;4940498;28;20043;-73
2022/12/07 04:06:09;;;;;;;7.13;3.93;;;;;;;;;;4973203;28;20117;-74
2022/12/07 04:08:35;;;;;;;7.27;3.60;;;;;;;;;;4973853;28;20043;-73
2022/12/07 04:11:01;;;;;;;5.70;3.20;;;;;;;;;;4974400;28;20097;-73
2022/12/07 04:13:27;;;;;;;5.33;3.10;;;;;;;;;;4942016;28;20377;-74
2022/12/07 04:15:52;;;;;;;5.33;2.90;;;;;;;;;;4942021;28;20047;-73
2022/12/07 04:18:19;;;;;;;7.73;3.57;;;;;;;;;;4941993;28;20038;-74
2022/12/07 04:20:45;;;;;;;7.27;3.20;;;;;;;;;;4957831;28;20548;-74
2022/12/07 04:23:11;;;;;;;7.13;3.30;;;;;;;;;;4957641;28;20101;-73
2022/12/07 04:25:37;;;;;;;5.77;3.40;;;;;;;;;;4957528;28;20038;-73
2022/12/07 04:28:02;;;;;;;5.80;3.50;;;;;;;;;;4974280;28;20042;-74
2022/12/07 04:30:28;;;;;;;6.37;3.27;;;;;;;;;;4941672;28;20054;-74
2022/12/07 04:32:53;;;;;;;13.30;4.20;;;;;;;;;;4957793;28;20042;-73
2022/12/07 04:35:19;;;;;;;9.00;4.20;;;;;;;;;;4941912;28;20532;-72
2022/12/07 04:37:45;;;;;;;9.73;3.40;;;;;;;;;;4957257;28;20090;-72
2022/12/07 04:40:12;;;;;;;7.80;3.53;;;;;;;;;;4957466;28;20489;-72
2022/12/07 05:17:43;;;;;;;5.73;3.57;;;;;;;;;;4972788;28;20282;-74
2022/12/07 05:20:28;;;;;;;6.70;3.77;;;;;;;;;;4959278;28;20301;-77
2022/12/07 05:23:20;;;;;;;6.60;4.00;;;;;;;;;;4981630;28;20313;-73
2022/12/07 05:25:46;;;;;;;10.03;4.30;;;;;;;;;;4964585;28;20266;-74
2022/12/07 05:28:13;;;;;;;11.77;4.27;;;;;;;;;;4967679;28;20716;-70
2022/12/07 05:30:39;;;;;;;8.90;3.97;;;;;;;;;;4956178;28;20389;-70
2022/12/07 05:33:05;;;;;;;9.97;4.90;;;;;;;;;;4940311;28;20041;-69
2022/12/07 05:35:31;;;;;;;8.47;4.93;;;;;;;;;;4939791;28;20361;-68
2022/12/07 05:37:58;;;;;;;7.63;4.43;;;;;;;;;;4972260;28;20105;-68
2022/12/07 05:40:24;;;;;;;9.00;4.70;;;;;;;;;;4956128;28;20741;-68
2022/12/07 05:42:49;;;;;;;12.03;5.40;;;;;;;;;;4956182;28;20278;-67
2022/12/07 05:45:15;;;;;;;11.90;5.07;;;;;;;;;;4940096;28;20034;-68
2022/12/07 05:47:41;;;;;;;11.20;4.73;;;;;;;;;;4940120;28;20058;-69
2022/12/07 05:50:07;;;;;;;8.20;4.00;;;;;;;;;;4955702;28;20050;-68
2022/12/07 05:52:33;;;;;;;10.27;4.57;;;;;;;;;;4940627;28;20540;-70
2022/12/07 05:54:58;;;;;;;13.13;6.30;;;;;;;;;;4957048;28;20035;-69
2022/12/07 05:57:24;;;;;;;10.27;5.77;;;;;;;;;;4941271;28;20066;-68
2022/12/07 05:59:50;;;;;;;13.97;6.07;;;;;;;;;;4941163;28;20034;-68
2022/12/07 06:02:17;;;;;;;9.80;5.50;;;;;;;;;;4972918;28;20046;-68
2022/12/07 06:04:44;;;;;;;10.33;5.70;;;;;;;;;;4973813;28;20034;-68
2022/12/07 06:07:11;;;;;;;13.10;6.60;;;;;;;;;;4956309;28;20296;-68
2022/12/07 06:09:38;;;;;;;15.73;5.83;;;;;;;;;;4940254;28;20763;-68
2022/12/07 06:15:14;;;;;;;14.87;6.50;;;;;;;;;;4971663;28;20800;-68
2022/12/07 06:17:39;;;;;;;8.90;4.87;;;;;;;;;;4940796;28;20285;-68
2022/12/07 06:20:20;;;;;;;12.97;6.80;;;;;;;;;;4940503;28;20037;-68
2022/12/07 06:22:46;;;;;;;13.93;4.63;;;;;;;;;;4956665;28;20066;-68
2022/12/07 06:25:12;;;;;;;18.77;5.87;;;;;;;;;;4940461;28;20329;-67
2022/12/07 06:27:39;;;;;;;12.10;5.37;;;;;;;;;;4940806;28;20035;-67
2022/12/07 06:30:08;;;;;;;12.33;6.13;;;;;;;;;;4916793;29;20306;-68
2022/12/07 06:32:36;;;;;;;13.75;5.85;;;;;;;;;;4934124;29;20023;-69
2022/12/07 06:35:03;;;;;;;11.00;5.30;;;;;;;;;;4918414;29;20054;-68
2022/12/07 06:37:29;;;;;;;10.20;5.40;;;;;;;;;;4933753;29;20292;-67
2022/12/07 06:39:58;;;;;;;8.23;4.80;;;;;;;;;;4918372;29;20617;-69
2022/12/07 06:42:23;;;;;;;11.87;4.90;;;;;;;;;;4934267;29;20035;-67
2022/12/07 06:44:49;;;;;;;12.23;5.77;;;;;;;;;;4918074;29;20031;-68
2022/12/07 06:47:15;;;;;;;12.83;4.93;;;;;;;;;;4932851;29;20542;-68
2022/12/07 06:49:40;;;;;;;10.63;5.17;;;;;;;;;;4917772;29;20051;-68
2022/12/07 06:52:06;;;;;;;11.67;5.00;;;;;;;;;;4939583;28;20035;-69
2022/12/07 06:54:32;;;;;;;8.70;4.70;;;;;;;;;;4938396;28;20461;-68
2022/12/07 06:56:59;;;;;;;9.27;4.67;;;;;;;;;;4954944;28;20506;-73
2022/12/07 06:59:26;;;;;;;7.77;4.37;;;;;;;;;;4954592;28;20443;-69
2022/12/07 07:01:55;;;;;;;10.53;5.07;;;;;;;;;;4939597;28;20453;-67
2022/12/07 07:04:24;;;;;;;10.33;5.40;;;;;;;;;;4970513;28;20046;-67
2022/12/07 07:06:50;;;;;;;11.13;5.50;;;;;;;;;;4953929;28;20043;-68
2022/12/07 07:09:17;;;;;;;12.17;5.53;;;;;;;;;;4970585;28;20062;-71
2022/12/07 07:11:44;;;;;;;11.97;5.67;;;;;;;;;;4941780;28;20137;-72
2022/12/07 07:14:09;;;;;;;11.60;5.70;;;;;;;;;;4940443;28;20448;-72
2022/12/07 07:16:35;;;;;;;10.53;5.77;;;;;;;;;;4939335;28;20046;-72
2022/12/07 07:19:01;;;;;;;10.83;5.87;;;;;;;;;;4938375;28;20097;-72
2022/12/07 07:21:27;;;;;;;9.07;5.10;;;;;;;;;;4933540;28;20059;-71
2022/12/07 07:23:52;;;;;;;11.53;5.23;;;;;;;;;;4938401;28;20031;-71
2022/12/07 07:26:18;;;;;;;9.80;5.10;;;;;;;;;;4938472;28;20986;-72
2022/12/07 07:28:44;;;;;;;13.67;5.50;;;;;;;;;;4938377;28;20058;-73
2022/12/07 07:31:09;;;;;;;11.93;5.40;;;;;;;;;;4954043;28;20042;-73
2022/12/07 07:33:35;;;;;;;11.40;5.40;;;;;;;;;;4938148;28;20445;-74
2022/12/07 07:36:01;;;;;;;11.73;5.88;;;;;;;;;;4937810;28;20065;-75
2022/12/07 07:38:27;;;;;;;9.77;5.40;;;;;;;;;;4970793;28;20038;-77
2022/12/07 07:40:52;;;;;;;9.88;5.53;;;;;;;;;;4938205;28;20519;-75
2022/12/07 07:43:18;;;;;;;10.30;5.82;;;;;;;;;;4938426;28;20122;-75
2022/12/07 07:45:45;;;;;;;9.82;5.63;;;;;;;;;;4938211;28;20045;-75
2022/12/07 07:48:11;;;;;;;12.15;5.78;;;;;;;;;;4954079;28;20567;-74
2022/12/07 07:50:37;;;;;;;9.10;5.30;;;;;;;;;;4938223;28;20077;-75
2022/12/07 07:53:03;;;;;;;9.30;5.28;;;;;;;;;;4955380;28;20189;-75
2022/12/07 07:55:28;;;;;;;11.07;5.72;;;;;;;;;;4956079;28;20488;-75
2022/12/07 07:57:54;;;;;;;9.48;5.60;;;;;;;;;;4941268;28;20096;-75
2022/12/07 08:00:22;;;;;;;11.65;5.78;;;;;;;;;;4974906;28;20041;-74
2022/12/07 08:02:48;;;;;;;11.45;5.63;;;;;;;;;;4958422;28;20055;-75
2022/12/07 08:05:13;;;;;;;10.40;5.22;;;;;;;;;;4942081;28;20050;-75
2022/12/07 08:07:41;;;;;;;10.77;5.72;;;;;;;;;;4941585;28;20058;-77
2022/12/07 08:10:10;;;;;;;12.95;6.05;;;;;;;;;;4942090;28;20046;-78
2022/12/07 08:15:31;;;;;;;16.40;6.20;;;;;;;;;;4956667;28;20034;-76
2022/12/07 08:18:01;;;;;;;12.57;5.85;;;;;;;;;;4974416;28;20118;-76
2022/12/07 08:20:26;;;;;;;13.70;6.05;;;;;;;;;;4941456;28;20145;-76
2022/12/07 08:22:52;;;;;;;13.20;6.05;;;;;;;;;;4941379;28;20130;-77
2022/12/07 08:25:19;;;;;;;11.60;6.25;;;;;;;;;;4957381;28;20035;-76
2022/12/07 08:27:44;;;;;;;15.20;5.72;;;;;;;;;;4941422;28;20034;-75
2022/12/07 08:30:10;;;;;;;11.43;6.00;;;;;;;;;;4941514;28;20097;-76
2022/12/07 08:32:36;;;;;;;10.18;6.15;;;;;;;;;;4941224;28;20035;-77
2022/12/07 08:35:02;;;;;;;10.52;5.35;;;;;;;;;;4941532;28;20038;-76
2022/12/07 08:37:29;;;;;;;11.60;5.50;;;;;;;;;;4973149;28;20053;-75
2022/12/07 08:39:54;;;;;;;7.25;4.70;;;;;;;;;;4957418;28;20046;-75
2022/12/07 08:42:22;;;;;;;9.85;4.90;;;;;;;;;;4940932;28;20039;-75
2022/12/07 08:44:48;;;;;;;11.65;5.05;;;;;;;;;;4941085;28;20039;-75
2022/12/07 08:47:15;;;;;;;14.48;5.10;;;;;;;;;;4941446;28;20128;-75
2022/12/07 08:49:45;;;;;;;7.97;5.28;;;;;;;;;;4957151;28;20113;-75
2022/12/07 08:52:12;;;;;;;8.70;4.90;;;;;;;;;;4957551;28;20039;-75
2022/12/07 08:54:45;;;;;;;11.93;5.30;;;;;;;;;;4942789;28;20054;-75
2022/12/07 08:57:12;;;;;;;8.43;5.25;;;;;;;;;;4941901;28;20047;-76
2022/12/07 08:59:40;;;;;;;8.55;5.10;;;;;;;;;;4957484;28;20175;-76
2022/12/07 09:02:06;;;;;;;9.82;4.90;;;;;;;;;;4941089;28;20121;-75
2022/12/07 09:04:32;;;;;;;9.10;4.72;;;;;;;;;;4957857;28;20050;-74
2022/12/07 09:06:59;;;;;;;9.05;5.25;;;;;;;;;;4957698;28;20109;-75
2022/12/07 09:09:25;;;;;;;9.48;5.35;;;;;;;;;;4957165;28;20109;-75
2022/12/07 09:11:51;;;;;;;11.30;5.55;;;;;;;;;;4941458;28;20034;-75
2022/12/07 09:14:18;;;;;;;11.70;5.22;;;;;;;;;;4941204;28;20426;-76
2022/12/07 09:16:45;;;;;;;10.15;4.97;;;;;;;;;;4941497;28;20384;-75
2022/12/07 09:19:13;;;;;;;13.48;5.63;;;;;;;;;;4941822;28;20585;-75
2022/12/07 09:21:38;;;;;;;14.75;5.07;;;;;;;;;;4957181;28;20038;-75
2022/12/07 09:24:05;;;;;;;8.88;4.72;;;;;;;;;;4941843;28;20433;-75
2022/12/07 09:26:31;;;;;;;8.50;4.95;;;;;;;;;;4941368;28;20121;-76
2022/12/07 09:28:56;;;;;;;10.90;5.10;;;;;;;;;;4957321;28;20097;-75
2022/12/07 09:31:22;;;;;;;10.73;5.05;;;;;;;;;;4957191;28;20704;-74
2022/12/07 09:33:57;;;;;;;9.18;4.82;;;;;;;;;;4973194;28;20038;-74
2022/12/07 09:36:23;;;;;;;8.57;5.13;;;;;;;;;;4956793;28;20113;-75
2022/12/07 09:38:50;;;;;;;8.38;4.80;;;;;;;;;;4957063;28;20034;-75
2022/12/07 09:41:16;;;;;;;7.13;4.70;;;;;;;;;;4940855;28;20043;-76
2022/12/07 09:43:42;;;;;;;13.82;4.88;;;;;;;;;;4956526;28;20030;-75
2022/12/07 09:46:14;;;;;;;11.98;5.50;;;;;;;;;;4940710;28;20039;-75
2022/12/07 09:48:42;;;;;;;13.02;5.60;;;;;;;;;;4957136;28;20129;-75
2022/12/07 09:51:16;;;;;;;7.85;4.68;;;;;;;;;;4940823;28;20516;-76
2022/12/07 09:53:41;;;;;;;10.45;5.53;;;;;;;;;;4956844;28;20044;-75
2022/12/07 09:56:08;;;;;;;10.32;5.28;;;;;;;;;;4940789;28;20035;-75
2022/12/07 09:58:35;;;;;;;7.80;5.10;;;;;;;;;;4973123;28;20034;-75
2022/12/07 10:01:11;;;;;;;13.15;5.53;;;;;;;;;;4958634;28;20130;-75
2022/12/07 10:03:38;;;;;;;8.32;5.15;;;;;;;;;;4959161;28;20074;-76
2022/12/07 10:06:05;;;;;;;8.85;5.63;;;;;;;;;;4951933;28;20101;-76
2022/12/07 10:08:31;;;;;;;9.70;4.70;;;;;;;;;;4942120;28;20039;-74
2022/12/07 10:10:57;;;;;;;13.07;5.38;;;;;;;;;;4956229;28;20404;-75
2022/12/07 10:13:38;;;;;;;11.73;5.35;;;;;;;;;;4940526;28;20039;-74
2022/12/07 10:16:04;;;;;;;10.68;5.32;;;;;;;;;;4956283;28;20039;-75
2022/12/07 10:18:31;;;;;;;11.80;5.72;;;;;;;;;;4940961;28;20045;-74
2022/12/07 10:21:02;;;;;;;14.85;5.68;;;;;;;;;;4955841;28;20035;-74
2022/12/07 10:23:28;;;;;;;11.60;5.82;;;;;;;;;;4940319;28;20181;-71
2022/12/07 10:25:54;;;;;;;11.27;5.70;;;;;;;;;;4972513;28;20149;-75
2022/12/07 10:28:21;;;;;;;11.77;5.45;;;;;;;;;;4956396;28;20039;-75
2022/12/07 10:30:53;;;;;;;10.80;5.40;;;;;;;;;;4956210;28;20038;-75
2022/12/07 10:33:31;;;;;;;11.60;5.13;;;;;;;;;;4940580;28;20039;-75
2022/12/07 10:35:57;;;;;;;8.60;5.00;;;;;;;;;;4955954;28;20409;-75
2022/12/07 10:38:25;;;;;;;12.25;5.63;;;;;;;;;;4940160;28;20041;-76
2022/12/07 10:41:02;;;;;;;10.77;4.88;;;;;;;;;;4956630;28;20500;-74
2022/12/07 10:43:28;;;;;;;11.35;5.50;;;;;;;;;;4940176;28;20475;-72
2022/12/07 10:45:53;;;;;;;12.48;5.20;;;;;;;;;;4956065;28;20042;-72
2022/12/07 10:48:32;;;;;;;9.90;4.97;;;;;;;;;;4940452;28;20043;-72
2022/12/07 10:51:07;;;;;;;13.05;6.10;;;;;;;;;;4940051;28;20050;-72
2022/12/07 10:53:45;;;;;;;8.95;5.30;;;;;;;;;;4956245;28;20066;-72
2022/12/07 10:56:24;;;;;;;17.58;6.22;;;;;;;;;;4956077;28;20101;-66
2022/12/07 10:59:05;;;;;;;11.27;4.30;;;;;;;;;;4939812;28;20038;-67
2022/12/07 11:01:34;;;;;;;9.40;5.50;;;;;;;;;;4940167;28;20034;-66
2022/12/07 11:04:09;;;;;;;11.93;5.97;;;;;;;;;;4938712;28;20043;-66
2022/12/07 11:06:37;;;;;;;8.90;5.15;;;;;;;;;;4954825;28;20122;-67
2022/12/07 11:09:03;;;;;;;11.35;5.70;;;;;;;;;;4969129;28;20043;-66
2022/12/07 11:11:32;;;;;;;9.32;5.57;;;;;;;;;;4954844;28;20039;-66
2022/12/07 11:14:13;;;;;;;14.50;6.07;;;;;;;;;;4938235;28;20053;-66
2022/12/07 11:16:39;;;;;;;13.25;5.38;;;;;;;;;;4939197;28;20042;-66
2022/12/07 11:19:08;;;;;;;9.38;5.60;;;;;;;;;;4939554;28;20359;-66
2022/12/07 11:21:33;;;;;;;15.75;5.90;;;;;;;;;;4955996;28;20038;-65
2022/12/07 11:24:10;;;;;;;12.60;5.82;;;;;;;;;;4971944;28;20393;-65
2022/12/07 11:26:51;;;;;;;10.75;6.00;;;;;;;;;;4956102;28;20136;-65
2022/12/07 11:29:36;;;;;;;16.35;6.38;;;;;;;;;;4971872;28;20066;-67
2022/12/07 11:32:04;;;;;;;17.27;5.75;;;;;;;;;;4955950;28;20038;-68
2022/12/07 11:34:39;;;;;;;9.32;5.40;;;;;;;;;;4975444;28;20038;-67
2022/12/07 11:37:12;;;;;;;15.40;5.57;;;;;;;;;;4959048;28;20063;-66
2022/12/07 11:39:44;;;;;;;8.85;5.45;;;;;;;;;;4943292;28;20045;-66
2022/12/07 11:42:14;;;;;;;9.27;5.25;;;;;;;;;;4958558;28;20034;-66
2022/12/07 11:44:40;;;;;;;8.70;5.90;;;;;;;;;;4973528;28;20039;-66
2022/12/07 11:47:18;;;;;;;14.48;5.78;;;;;;;;;;4940176;29;20039;-65
2022/12/07 11:50:02;;;;;;;10.25;5.53;;;;;;;;;;4923695;29;20047;-66
2022/12/07 11:52:32;;;;;;;9.25;5.80;;;;;;;;;;4923978;29;20442;-69
2022/12/07 11:54:59;;;;;;;12.38;5.88;;;;;;;;;;4924076;29;20050;-67
2022/12/07 11:57:28;;;;;;;13.77;6.13;;;;;;;;;;4923737;29;20105;-66
2022/12/07 12:00:02;;;;;;;12.50;6.13;;;;;;;;;;4955706;29;20106;-68
2022/12/07 12:02:45;;;;;;;12.47;6.23;;;;;;;;;;4939734;29;20386;-68
2022/12/07 12:05:11;;;;;;;;;;;;;;;;;;4939767;29;20054;-69
2022/12/07 12:07:37;;;;;;;11.53;6.13;;;;;;;;;;4923804;29;20333;-70
2022/12/07 12:10:13;;;;;;;11.43;5.90;;;;;;;;;;4939573;29;20210;-71
2022/12/07 12:13:05;;;;;;;15.13;6.30;;;;;;;;;;4939742;29;20031;-71
2022/12/07 12:15:52;;;;;;;16.03;6.43;;;;;;;;;;4939494;29;20073;-70
2022/12/07 12:18:28;;;;;;;17.13;6.47;;;;;;;;;;4923572;29;20138;-71
2022/12/07 12:20:56;;;;;;;13.80;6.40;;;;;;;;;;4938927;29;20039;-68
2022/12/07 12:23:40;;;;;;;16.30;6.67;;;;;;;;;;4923420;29;20045;-68
2022/12/07 12:26:08;;;;;;;12.90;6.27;;;;;;;;;;4939696;29;20053;-67
2022/12/07 12:28:37;;;;;;;14.00;5.97;;;;;;;;;;4923291;29;20142;-72
2022/12/07 12:31:12;;;;;;;20.50;6.70;;;;;;;;;;4954975;29;20114;-71
2022/12/07 12:33:42;;;;;;;13.57;6.90;;;;;;;;;;4955200;29;20043;-71
2022/12/07 12:36:26;;;;;;;13.07;5.83;;;;;;;;;;4923389;29;20046;-71
2022/12/07 12:38:58;;;;;;;12.47;6.90;;;;;;;;;;4937814;29;20393;-71
2022/12/07 12:44:19;;;;;;;11.80;6.57;;;;;;;;;;4937353;29;20039;-71
2022/12/07 12:46:51;;;;;;;11.10;6.50;;;;;;;;;;4922211;29;20290;-72
2022/12/07 12:49:20;;;;;;;14.33;6.47;;;;;;;;;;4937906;29;20071;-71
2022/12/07 12:51:47;;;;;;;13.83;6.33;;;;;;;;;;4922263;29;20118;-71
2022/12/07 12:54:25;;;;;;;11.63;6.17;;;;;;;;;;4922981;29;20039;-70
2022/12/07 12:57:03;;;;;;;14.90;7.10;;;;;;;;;;4938872;29;20054;-70
2022/12/07 12:59:33;;;;;;;12.10;6.30;;;;;;;;;;4938675;29;20132;-70
2022/12/07 13:02:17;;;;;;;10.88;5.22;;;;;;;;;;4938515;29;20057;-70
2022/12/07 13:05:00;;;;;;;9.67;5.83;;;;;;;;;;4938338;29;20051;-73
2022/12/07 13:07:44;;;;;;;12.67;6.57;;;;;;;;;;4938219;29;20039;-70
2022/12/07 13:10:32;;;;;;;13.23;6.33;;;;;;;;;;4938735;29;20406;-70
2022/12/07 13:13:01;;;;;;;10.43;6.43;;;;;;;;;;4938308;29;20043;-70
2022/12/07 13:15:33;;;;;;;14.07;6.30;;;;;;;;;;4938329;29;20035;-71
2022/12/07 13:18:00;;;;;;;13.97;6.43;;;;;;;;;;4922357;29;20367;-70
2022/12/07 13:20:44;;;;;;;13.97;5.33;;;;;;;;;;4938000;29;20537;-70
2022/12/07 13:23:12;;;;;;;21.77;5.57;;;;;;;;;;4954363;29;20166;-71
2022/12/07 13:25:47;;;;;;;9.97;5.13;;;;;;;;;;4938124;29;20463;-71
2022/12/07 13:28:17;;;;;;;12.23;5.77;;;;;;;;;;4954355;29;20035;-70
2022/12/07 13:31:05;;;;;;;13.30;6.67;;;;;;;;;;4954784;28;20197;-71
2022/12/07 13:33:34;;;;;;;12.90;6.60;;;;;;;;;;4921952;29;20394;-70
2022/12/07 13:36:00;;;;;;;11.53;5.50;;;;;;;;;;4922143;29;20503;-70
2022/12/07 13:38:37;;;;;;;12.13;6.13;;;;;;;;;;4900050;29;20052;-70
2022/12/07 13:41:02;;;;;;;11.00;5.47;;;;;;;;;;4900201;29;20067;-70
2022/12/07 13:43:28;;;;;;;12.93;5.87;;;;;;;;;;4900117;29;20454;-70
2022/12/07 13:45:57;;;;;;;15.93;5.77;;;;;;;;;;4899683;29;20071;-70
2022/12/07 13:48:26;;;;;;;9.90;5.60;;;;;;;;;;4884199;29;20040;-68
2022/12/07 13:50:53;;;;;;;11.07;5.40;;;;;;;;;;4899685;29;20076;-71
2022/12/07 13:53:19;;;;;;;8.73;5.20;;;;;;;;;;4894684;29;20122;-72
2022/12/07 13:55:46;;;;;;;14.33;5.87;;;;;;;;;;4882159;29;20079;-74
2022/12/07 13:58:12;;;;;;;12.30;6.33;;;;;;;;;;4882994;29;20566;-71
2022/12/07 14:00:40;;;;;;;14.73;5.63;;;;;;;;;;4898381;29;20110;-71
2022/12/07 14:03:13;;;;;;;9.13;5.03;;;;;;;;;;4898362;29;20039;-71
2022/12/07 14:05:40;;;;;;;15.37;7.13;;;;;;;;;;4914626;29;20071;-72
2022/12/07 14:08:09;;;;;;;11.20;6.07;;;;;;;;;;4898677;29;20039;-71
2022/12/07 14:10:40;;;;;;;15.13;5.67;;;;;;;;;;4883005;29;20056;-71
2022/12/07 14:13:24;;;;;;;13.57;6.13;;;;;;;;;;4897893;29;20032;-71
2022/12/07 14:15:51;;;;;;;13.10;5.67;;;;;;;;;;4898356;29;20070;-72
2022/12/07 14:18:30;;;;;;;13.63;6.90;;;;;;;;;;4914326;29;20047;-72
2022/12/07 14:21:04;;;;;;;14.00;6.10;;;;;;;;;;4887804;29;20032;-72
2022/12/07 14:23:30;;;;;;;11.80;6.27;;;;;;;;;;4906947;29;20031;-72
2022/12/07 14:26:07;;;;;;;14.53;7.33;;;;;;;;;;4895554;29;20351;-72
2022/12/07 14:28:34;;;;;;;10.43;5.50;;;;;;;;;;4934223;29;20046;-72
2022/12/07 14:31:00;;;;;;;11.93;5.90;;;;;;;;;;4917301;29;20043;-71
2022/12/07 14:33:27;;;;;;;9.77;5.43;;;;;;;;;;4901481;29;20036;-71
2022/12/07 14:35:57;;;;;;;12.80;6.40;;;;;;;;;;4917253;29;20046;-71
2022/12/07 14:38:24;;;;;;;11.32;5.93;;;;;;;;;;4970688;28;20073;-71
2022/12/07 14:40:50;;;;;;;13.83;5.43;;;;;;;;;;4971420;28;20030;-73
2022/12/07 14:43:18;;;;;;;12.13;6.17;;;;;;;;;;4939190;28;20038;-72
2022/12/07 14:45:44;;;;;;;18.13;7.17;;;;;;;;;;4939279;28;20046;-72
2022/12/07 14:48:11;;;;;;;14.40;6.90;;;;;;;;;;4954546;28;20042;-71
2022/12/07 14:50:38;;;;;;;14.60;6.53;;;;;;;;;;4968172;28;20042;-72
2022/12/07 14:53:12;;;;;;;15.47;7.10;;;;;;;;;;4926365;28;20049;-71
2022/12/07 14:55:38;;;;;;;18.53;6.80;;;;;;;;;;4971080;28;20066;-72
2022/12/07 14:58:05;;;;;;;12.77;6.50;;;;;;;;;;4939117;28;20062;-73
2022/12/07 15:00:31;;;;;;;17.77;7.10;;;;;;;;;;4955341;28;20038;-72
2022/12/07 15:02:57;;;;;;;16.03;7.43;;;;;;;;;;4938710;28;20047;-71
2022/12/07 15:05:23;;;;;;;13.50;7.10;;;;;;;;;;4938305;28;20039;-72
2022/12/07 15:07:51;;;;;;;14.67;6.07;;;;;;;;;;4956605;28;20380;-73
2022/12/07 15:10:38;;;;;;;22.40;7.80;;;;;;;;;;4957628;28;20138;-73
2022/12/07 15:15:49;;;;;;;14.73;6.30;;;;;;;;;;4956277;28;20062;-72
2022/12/07 15:18:16;;;;;;;11.77;6.20;;;;;;;;;;4956003;28;20038;-72
2022/12/07 15:20:43;;;;;;;15.47;7.20;;;;;;;;;;4940872;28;20045;-73
2022/12/07 15:23:09;;;;;;;15.43;7.47;;;;;;;;;;4940561;28;20039;-73
2022/12/07 15:25:34;;;;;;;14.23;6.83;;;;;;;;;;4956368;28;20039;-72
2022/12/07 15:28:00;;;;;;;13.77;8.20;;;;;;;;;;4940397;28;20041;-72
2022/12/07 15:30:26;;;;;;;12.27;6.20;;;;;;;;;;4942320;28;20138;-71
2022/12/07 15:32:52;;;;;;;21.63;8.30;;;;;;;;;;4942538;28;20038;-72
2022/12/07 15:35:18;;;;;;;12.97;6.37;;;;;;;;;;4974768;28;20109;-73